createdAt,value
2023-08-02T00:01:08.138Z,16.38
2023-08-02T00:04:12.067Z,16.07
2023-08-02T00:07:15.478Z,16.28
2023-08-02T00:10:19.116Z,16.30
2023-08-02T00:13:22.339Z,16.18
2023-08-02T00:16:25.799Z,16.34
2023-08-02T00:19:28.930Z,16.35
2023-08-02T00:22:32.542Z,16.24
2023-08-02T00:25:35.818Z,16.05
2023-08-02T00:28:39.166Z,16.09
2023-08-02T00:31:42.550Z,16.02
2023-08-02T00:34:46.291Z,16.17
2023-08-02T00:37:49.683Z,16.11
2023-08-02T00:40:53.124Z,15.95
2023-08-02T00:43:56.469Z,16.06
2023-08-02T00:47:00.188Z,15.91
2023-08-02T00:50:04.000Z,15.82
2023-08-02T00:53:07.547Z,15.96
2023-08-02T00:56:11.430Z,15.88
2023-08-02T00:59:14.716Z,15.99
2023-08-02T01:02:18.203Z,15.88
2023-08-02T01:05:25.610Z,15.88
2023-08-02T01:08:32.902Z,15.97
2023-08-02T01:12:01.233Z,16.02
2023-08-02T01:15:06.992Z,15.83
2023-08-02T01:18:12.000Z,15.86
2023-08-02T01:21:15.128Z,15.94
2023-08-02T01:24:19.195Z,15.99
2023-08-02T01:27:25.970Z,15.78
2023-08-02T01:30:37.860Z,15.82
2023-08-02T01:33:47.451Z,15.85
2023-08-02T01:36:50.991Z,15.92
2023-08-02T01:39:54.242Z,15.84
2023-08-02T01:42:57.793Z,15.90
2023-08-02T01:46:02.302Z,15.82
2023-08-02T01:49:07.448Z,15.82
2023-08-02T01:52:10.571Z,15.91
2023-08-02T01:55:14.844Z,15.89
2023-08-02T01:58:18.090Z,15.77
2023-08-02T02:01:21.672Z,15.77
2023-08-02T02:04:25.185Z,15.79
2023-08-02T02:07:28.646Z,15.91
2023-08-02T02:10:32.129Z,15.91
2023-08-02T02:13:35.152Z,15.94
2023-08-02T02:16:38.968Z,15.94
2023-08-02T02:19:42.059Z,15.91
2023-08-02T02:22:45.495Z,15.99
2023-08-02T02:25:48.697Z,16.03
2023-08-02T02:28:52.453Z,15.79
2023-08-02T02:31:55.754Z,15.81
2023-08-02T02:35:01.443Z,15.92
2023-08-02T02:38:04.746Z,15.89
2023-08-02T02:41:08.716Z,15.83
2023-08-02T02:44:11.876Z,15.88
2023-08-02T02:47:15.592Z,15.85
2023-08-02T02:50:19.644Z,15.86
2023-08-02T02:53:24.949Z,15.79
2023-08-02T02:56:28.148Z,15.76
2023-08-02T02:59:31.734Z,15.79
2023-08-02T03:02:35.035Z,15.83
2023-08-02T03:05:40.030Z,15.95
2023-08-02T03:08:43.341Z,15.79
2023-08-02T03:11:47.201Z,15.81
2023-08-02T03:14:50.580Z,15.77
2023-08-02T03:17:54.032Z,15.74
2023-08-02T03:20:57.272Z,15.52
2023-08-02T03:24:01.053Z,15.55
2023-08-02T03:27:05.709Z,15.50
2023-08-02T03:30:09.194Z,15.60
2023-08-02T03:33:12.924Z,15.67
2023-08-02T03:36:17.280Z,15.64
2023-08-02T03:39:20.493Z,15.57
2023-08-02T03:42:24.185Z,15.52
2023-08-02T03:45:27.931Z,15.69
2023-08-02T03:48:32.510Z,15.66
2023-08-02T03:51:35.834Z,15.79
2023-08-02T03:54:39.828Z,15.87
2023-08-02T03:57:43.290Z,15.90
2023-08-02T04:00:46.791Z,15.93
2023-08-02T04:03:50.330Z,16.06
2023-08-02T04:06:53.698Z,16.09
2023-08-02T04:09:57.295Z,16.19
2023-08-02T04:13:00.715Z,16.21
2023-08-02T04:16:05.379Z,16.29
2023-08-02T04:19:08.706Z,16.38
2023-08-02T04:22:12.552Z,16.16
2023-08-02T04:25:15.840Z,15.95
2023-08-02T04:28:19.405Z,16.07
2023-08-02T04:31:22.614Z,15.89
2023-08-02T04:34:26.411Z,15.98
2023-08-02T04:37:30.452Z,15.85
2023-08-02T04:40:38.982Z,15.74
2023-08-02T04:43:42.082Z,15.62
2023-08-02T04:46:46.054Z,15.82
2023-08-02T04:49:52.132Z,15.95
2023-08-02T04:52:55.681Z,16.04
2023-08-02T04:55:58.981Z,15.95
2023-08-02T04:59:02.412Z,16.10
2023-08-02T05:02:05.682Z,16.30
2023-08-02T05:05:09.814Z,16.12
2023-08-02T05:08:13.317Z,16.27
2023-08-02T05:11:17.277Z,16.43
2023-08-02T05:14:21.368Z,16.21
2023-08-02T05:17:26.356Z,16.26
2023-08-02T05:20:35.246Z,16.28
2023-08-02T05:23:38.938Z,16.33
2023-08-02T05:26:43.434Z,16.28
2023-08-02T05:29:47.333Z,16.44
2023-08-02T05:32:51.105Z,16.61
2023-08-02T05:35:55.973Z,16.55
2023-08-02T05:38:59.486Z,16.60
2023-08-02T05:42:03.120Z,16.68
2023-08-02T05:45:06.822Z,16.84
2023-08-02T05:48:10.441Z,16.74
2023-08-02T05:51:13.676Z,16.90
2023-08-02T05:54:18.066Z,16.88
2023-08-02T05:57:21.165Z,16.87
2023-08-02T06:00:24.844Z,16.53
2023-08-02T06:03:28.561Z,16.75
2023-08-02T06:06:31.546Z,17.01
2023-08-02T06:09:35.162Z,16.88
2023-08-02T06:12:38.474Z,16.65
2023-08-02T06:15:43.129Z,16.93
2023-08-02T06:18:46.437Z,17.04
2023-08-02T06:21:50.122Z,16.90
2023-08-02T06:24:53.340Z,17.13
2023-08-02T06:27:56.773Z,17.16
2023-08-02T06:30:59.923Z,17.43
2023-08-02T06:34:03.426Z,17.51
2023-08-02T06:37:06.742Z,17.57
2023-08-02T06:40:11.035Z,17.70
2023-08-02T06:43:14.119Z,17.45
2023-08-02T06:46:17.623Z,17.71
2023-08-02T06:49:20.721Z,18.01
2023-08-02T06:52:24.354Z,18.25
2023-08-02T06:55:27.487Z,18.21
2023-08-02T06:58:31.220Z,18.01
2023-08-02T07:01:34.339Z,17.95
2023-08-02T07:04:38.076Z,18.43
2023-08-02T07:07:41.317Z,18.10
2023-08-02T07:10:45.053Z,18.14
2023-08-02T07:13:48.363Z,18.32
2023-08-02T07:16:51.921Z,19.01
2023-08-02T07:19:56.130Z,19.00
2023-08-02T07:22:59.517Z,18.55
2023-08-02T07:26:06.932Z,19.05
2023-08-02T07:29:10.244Z,19.28
2023-08-02T07:32:13.413Z,19.43
2023-08-02T07:35:16.943Z,19.53
2023-08-02T07:38:19.921Z,19.27
2023-08-02T07:41:23.259Z,19.08
2023-08-02T07:44:27.089Z,19.35
2023-08-02T07:47:30.662Z,19.42
2023-08-02T07:50:35.142Z,19.74
2023-08-02T07:53:38.545Z,19.95
2023-08-02T07:56:42.491Z,20.01
2023-08-02T07:59:45.772Z,19.74
2023-08-02T08:02:48.993Z,19.79
2023-08-02T08:05:52.693Z,19.91
2023-08-02T08:08:55.967Z,20.27
2023-08-02T08:12:03.754Z,20.18
2023-08-02T08:15:09.001Z,20.55
2023-08-02T08:18:12.431Z,20.32
2023-08-02T08:21:15.622Z,20.33
2023-08-02T08:24:19.082Z,19.98
2023-08-02T08:27:22.455Z,20.14
2023-08-02T08:30:25.780Z,20.72
2023-08-02T08:33:30.064Z,20.73
2023-08-02T08:36:33.680Z,20.23
2023-08-02T08:39:38.750Z,20.50
2023-08-02T08:42:56.549Z,20.80
2023-08-02T08:46:00.016Z,20.66
2023-08-02T08:49:04.617Z,21.11
2023-08-02T08:52:13.094Z,21.30
2023-08-02T08:55:18.004Z,21.49
2023-08-02T08:58:21.058Z,21.38
2023-08-02T09:01:24.628Z,21.79
2023-08-02T09:04:27.913Z,21.40
2023-08-02T09:07:35.035Z,21.46
2023-08-02T09:10:39.512Z,22.13
2023-08-02T09:13:43.425Z,21.66
2023-08-02T09:16:57.646Z,22.13
2023-08-02T09:20:07.887Z,21.79
2023-08-02T09:23:17.198Z,22.06
2023-08-02T09:26:21.742Z,21.94
2023-08-02T09:29:25.209Z,21.98
2023-08-02T09:32:28.966Z,21.86
2023-08-02T09:35:49.316Z,21.92
2023-08-02T09:39:20.459Z,22.45
2023-08-02T09:42:28.677Z,22.21
2023-08-02T09:45:34.703Z,22.08
2023-08-02T09:48:37.941Z,21.91
2023-08-02T09:51:44.148Z,22.63
2023-08-02T09:54:47.656Z,21.77
2023-08-02T09:57:51.279Z,22.26
2023-08-02T10:00:55.105Z,22.79
2023-08-02T10:04:00.664Z,22.96
2023-08-02T10:07:05.114Z,22.95
2023-08-02T10:10:15.793Z,23.33
2023-08-02T10:13:27.313Z,23.10
2023-08-02T10:16:31.523Z,22.85
2023-08-02T10:19:36.955Z,22.69
2023-08-02T10:22:42.259Z,23.08
2023-08-02T10:25:45.816Z,23.47
2023-08-02T10:28:49.999Z,23.50
2023-08-02T10:31:55.473Z,23.17
2023-08-02T10:35:01.055Z,23.45
2023-08-02T10:38:04.195Z,23.69
2023-08-02T10:41:12.429Z,23.68
2023-08-02T10:44:17.072Z,23.87
2023-08-02T10:47:30.674Z,23.77
2023-08-02T10:50:50.101Z,23.47
2023-08-02T10:54:20.924Z,23.76
2023-08-02T10:57:24.255Z,23.77
2023-08-02T11:00:34.602Z,23.89
2023-08-02T11:03:39.146Z,24.63
2023-08-02T11:06:42.817Z,24.45
2023-08-02T11:09:47.391Z,24.19
2023-08-02T11:12:55.141Z,24.13
2023-08-02T11:16:03.605Z,24.25
2023-08-02T11:19:11.586Z,24.50
2023-08-02T11:22:15.224Z,24.80
2023-08-02T11:28:28.958Z,24.62
2023-08-02T11:31:32.843Z,25.16
2023-08-02T11:34:37.649Z,25.40
2023-08-02T11:37:41.048Z,25.25
2023-08-02T11:40:44.304Z,25.18
2023-08-02T11:43:49.154Z,25.48
2023-08-02T11:46:56.233Z,25.02
2023-08-02T11:50:01.210Z,25.33
2023-08-02T11:53:09.266Z,24.98
2023-08-02T11:56:13.036Z,25.70
2023-08-02T11:59:16.217Z,26.10
2023-08-02T12:02:26.028Z,26.31
2023-08-02T12:05:29.566Z,26.48
2023-08-02T12:08:32.810Z,25.69
2023-08-02T12:11:36.429Z,26.39
2023-08-02T12:14:39.460Z,26.57
2023-08-02T12:17:43.077Z,26.63
2023-08-02T12:20:49.273Z,26.19
2023-08-02T12:23:54.050Z,26.42
2023-08-02T12:27:12.326Z,26.53
2023-08-02T12:30:17.222Z,26.12
2023-08-02T12:33:20.382Z,26.59
2023-08-02T12:36:30.645Z,26.32
2023-08-02T12:39:33.846Z,26.29
2023-08-02T12:42:45.522Z,26.16
2023-08-02T12:45:56.355Z,25.85
2023-08-02T12:49:00.042Z,27.29
2023-08-02T12:52:03.503Z,27.61
2023-08-02T12:55:07.352Z,27.61
2023-08-02T12:58:10.748Z,27.90
2023-08-02T13:01:14.614Z,26.95
2023-08-02T13:04:18.095Z,26.67
2023-08-02T13:07:28.563Z,26.86
2023-08-02T13:10:35.578Z,26.49
2023-08-02T13:13:39.005Z,27.70
2023-08-02T13:16:42.293Z,27.68
2023-08-02T13:19:45.858Z,29.38
2023-08-02T13:22:49.078Z,29.36
2023-08-02T13:25:52.463Z,29.07
2023-08-02T13:28:55.747Z,30.88
2023-08-02T13:31:59.441Z,29.74
2023-08-02T13:35:06.396Z,29.75
2023-08-02T13:38:10.762Z,28.92
2023-08-02T13:41:13.951Z,29.86
2023-08-02T13:44:18.919Z,30.50
2023-08-02T13:47:22.637Z,30.45
2023-08-02T13:50:26.737Z,31.03
2023-08-02T13:53:31.288Z,31.81
2023-08-02T13:56:34.657Z,32.06
2023-08-02T13:59:39.735Z,28.20
2023-08-02T14:02:43.235Z,28.26
2023-08-02T14:05:46.939Z,28.37
2023-08-02T14:08:50.068Z,28.63
2023-08-02T14:11:53.623Z,28.22
2023-08-02T14:14:56.662Z,27.75
2023-08-02T14:18:00.311Z,27.81
2023-08-02T14:21:03.553Z,28.22
2023-08-02T14:24:07.110Z,29.84
2023-08-02T14:27:11.508Z,30.19
2023-08-02T14:30:14.892Z,30.42
2023-08-02T14:33:18.493Z,31.38
2023-08-02T14:36:23.588Z,30.95
2023-08-02T14:39:26.932Z,32.77
2023-08-02T14:42:31.458Z,34.31
2023-08-02T14:45:36.185Z,32.84
2023-08-02T14:48:39.591Z,31.82
2023-08-02T14:51:42.884Z,31.34
2023-08-02T14:54:46.738Z,31.75
2023-08-02T14:57:50.075Z,31.55
2023-08-02T15:00:56.488Z,31.37
2023-08-02T15:04:00.196Z,31.87
2023-08-02T15:07:04.008Z,31.97
2023-08-02T15:10:07.587Z,32.60
2023-08-02T15:13:10.948Z,33.73
2023-08-02T15:16:14.001Z,33.16
2023-08-02T15:19:18.905Z,34.48
2023-08-02T15:22:22.076Z,33.91
2023-08-02T15:25:25.529Z,32.37
2023-08-02T15:28:28.544Z,31.46
2023-08-02T15:31:32.126Z,29.60
2023-08-02T15:34:35.595Z,28.20
2023-08-02T15:37:38.970Z,27.99
2023-08-02T15:40:42.084Z,27.70
2023-08-02T15:43:47.082Z,27.47
2023-08-02T15:46:50.419Z,27.45
2023-08-02T15:49:54.009Z,27.16
2023-08-02T15:53:00.936Z,27.30
2023-08-02T15:56:07.152Z,27.03
2023-08-02T15:59:10.608Z,27.42
2023-08-02T16:02:14.288Z,27.73
2023-08-02T16:05:20.816Z,28.77
2023-08-02T16:08:24.886Z,30.11
2023-08-02T16:11:29.064Z,30.79
2023-08-02T16:14:34.618Z,31.70
2023-08-02T16:17:40.137Z,30.24
2023-08-02T16:20:45.452Z,31.00
2023-08-02T16:24:00.266Z,31.78
2023-08-02T16:27:05.298Z,32.76
2023-08-02T16:30:10.647Z,31.93
2023-08-02T16:33:14.913Z,31.11
2023-08-02T16:36:20.926Z,31.07
2023-08-02T16:39:25.402Z,32.23
2023-08-02T16:42:28.914Z,32.74
2023-08-02T16:45:32.489Z,31.61
2023-08-02T16:48:36.366Z,32.34
2023-08-02T16:51:41.380Z,31.57
2023-08-02T16:54:46.792Z,32.70
2023-08-02T16:57:50.766Z,30.73
2023-08-02T17:00:55.637Z,30.76
2023-08-02T17:04:00.731Z,30.78
2023-08-02T17:07:06.258Z,30.80
2023-08-02T17:10:11.835Z,31.29
2023-08-02T17:13:16.689Z,30.95
2023-08-02T17:16:20.110Z,31.19
2023-08-02T17:19:29.734Z,31.82
2023-08-02T17:22:33.843Z,31.57
2023-08-02T17:25:38.323Z,32.17
2023-08-02T17:28:43.699Z,31.25
2023-08-02T17:31:48.302Z,30.46
2023-08-02T17:34:52.139Z,31.18
2023-08-02T17:38:00.148Z,30.46
2023-08-02T17:41:03.648Z,30.09
2023-08-02T17:44:07.982Z,29.88
2023-08-02T17:47:11.338Z,29.46
2023-08-02T17:50:15.279Z,29.27
2023-08-02T17:53:19.665Z,28.75
2023-08-02T17:56:23.482Z,28.69
2023-08-02T17:59:28.520Z,28.01
2023-08-02T18:02:32.570Z,28.15
2023-08-02T18:05:39.721Z,27.92
2023-08-02T18:08:45.049Z,27.08
2023-08-02T18:11:49.819Z,26.47
2023-08-02T18:14:54.044Z,26.75
2023-08-02T18:17:58.734Z,26.21
2023-08-02T18:21:02.992Z,25.71
2023-08-02T18:24:07.502Z,25.36
2023-08-02T18:27:11.518Z,24.63
2023-08-02T18:30:15.658Z,24.41
2023-08-02T18:33:19.832Z,24.18
2023-08-02T18:36:23.203Z,24.19
2023-08-02T18:39:26.657Z,23.95
2023-08-02T18:42:30.665Z,23.57
2023-08-02T18:45:34.593Z,23.82
2023-08-02T18:48:39.742Z,23.49
2023-08-02T18:51:45.550Z,23.62
2023-08-02T18:54:51.569Z,23.56
2023-08-02T18:57:56.385Z,23.35
2023-08-02T19:01:03.743Z,23.31
2023-08-02T19:04:08.319Z,23.22
2023-08-02T19:07:16.930Z,23.23
2023-08-02T19:10:20.739Z,23.28
2023-08-02T19:13:25.758Z,23.16
2023-08-02T19:16:31.326Z,23.05
2023-08-02T19:19:37.626Z,23.10
2023-08-02T19:22:44.145Z,22.97
2023-08-02T19:25:49.369Z,22.99
2023-08-02T19:28:53.644Z,22.88
2023-08-02T19:31:58.879Z,22.86
2023-08-02T19:35:02.892Z,22.75
2023-08-02T19:38:07.044Z,22.80
2023-08-02T19:41:11.342Z,22.60
2023-08-02T19:44:14.962Z,22.69
2023-08-02T19:47:26.051Z,22.81
2023-08-02T19:50:34.203Z,22.81
2023-08-02T19:53:37.629Z,22.63
2023-08-02T19:56:45.204Z,22.71
2023-08-02T20:00:00.207Z,22.69
2023-08-02T20:03:06.106Z,22.43
2023-08-02T20:06:12.112Z,22.50
2023-08-02T20:09:17.708Z,22.50
2023-08-02T20:12:22.049Z,22.51
2023-08-02T20:15:25.861Z,22.56
2023-08-02T20:18:30.458Z,22.58
2023-08-02T20:21:34.256Z,22.57
2023-08-02T20:24:40.142Z,22.61
2023-08-02T20:27:45.826Z,22.56
2023-08-02T20:30:54.714Z,22.43
2023-08-02T20:33:59.028Z,22.44
2023-08-02T20:37:02.876Z,22.46
2023-08-02T20:40:09.117Z,22.33
2023-08-02T20:43:15.730Z,22.42
2023-08-02T20:46:27.506Z,22.37
2023-08-02T20:49:31.168Z,22.43
2023-08-02T20:52:34.433Z,22.45
2023-08-02T20:55:38.685Z,22.35
2023-08-02T20:58:42.178Z,22.32
2023-08-02T21:01:46.268Z,22.42
2023-08-02T21:04:50.420Z,22.42
2023-08-02T21:07:53.761Z,22.43
2023-08-02T21:10:56.979Z,22.46
2023-08-02T21:14:00.375Z,22.33
2023-08-02T21:17:07.329Z,22.40
2023-08-02T21:20:31.919Z,22.38
2023-08-02T21:23:40.225Z,22.36
2023-08-02T21:26:43.627Z,22.41
2023-08-02T21:29:47.910Z,22.36
2023-08-02T21:32:51.840Z,22.35
2023-08-02T21:35:57.253Z,22.30
2023-08-02T21:39:00.666Z,22.47
2023-08-02T21:42:06.018Z,22.46
2023-08-02T21:45:15.270Z,22.38
2023-08-02T21:48:19.751Z,22.30
2023-08-02T21:51:25.461Z,22.42
2023-08-02T21:54:31.539Z,22.44
2023-08-02T21:57:37.570Z,22.56
2023-08-02T22:00:42.159Z,22.44
2023-08-02T22:03:46.281Z,22.49
2023-08-02T22:06:49.666Z,22.41
2023-08-02T22:09:56.327Z,22.33
2023-08-02T22:13:00.675Z,22.34
2023-08-02T22:16:10.573Z,22.25
2023-08-02T22:19:13.879Z,22.21
2023-08-02T22:22:18.180Z,22.19
2023-08-02T22:25:21.459Z,22.21
2023-08-02T22:28:24.982Z,22.23
2023-08-02T22:31:28.416Z,22.24
2023-08-02T22:34:31.882Z,22.15
2023-08-02T22:37:35.425Z,22.10
2023-08-02T22:40:39.110Z,22.10
2023-08-02T22:43:42.346Z,21.96
2023-08-02T22:46:45.925Z,22.04
2023-08-02T22:52:58.748Z,21.99
2023-08-02T22:56:04.513Z,22.03
2023-08-02T22:59:12.861Z,21.99
2023-08-02T23:02:16.418Z,21.96
2023-08-02T23:05:22.804Z,21.92
2023-08-02T23:08:26.945Z,21.91
2023-08-02T23:11:31.305Z,21.82
2023-08-02T23:14:34.566Z,21.83
2023-08-02T23:17:38.178Z,21.77
2023-08-02T23:20:48.429Z,21.71
2023-08-02T23:23:52.090Z,21.71
2023-08-02T23:26:55.271Z,21.65
2023-08-02T23:30:02.267Z,21.60
2023-08-02T23:33:10.750Z,21.54
2023-08-02T23:36:14.447Z,21.52
2023-08-02T23:39:17.577Z,21.50
2023-08-02T23:42:20.988Z,21.55
2023-08-02T23:45:24.198Z,21.44
2023-08-02T23:48:28.830Z,21.40
2023-08-02T23:51:32.277Z,21.35
2023-08-02T23:54:36.188Z,21.24
2023-08-02T23:57:40.991Z,21.19
